Terminal Aerodrome Forecast
Issued by NWS

Home | Current Version | Previous Version | Text Only | Print | Product List | Glossary On
Versions: 1 2 3 4 5 6 7 8 9 10 11 12 13 14 15
000
FTUS43 KILX 250500
TAFCMI
TAF
KCMI 250528Z 2506/2606 19006KT P6SM SCT025 BKN035
     FM251100 24003KT 2SM BR SCT025
     FM251400 29008KT P6SM SCT015
     FM251800 31010KT P6SM SKC
     FM252300 31005KT P6SM SKC=

USA.gov is the U.S. government's official web portal to all federal, state and local government web resources and services.